sensor_id;sensor_type;location;lat;lon;timestamp;pressure;altitude;pressure_sealevel;temperature;humidity
21401;BME280;18038;50.166;18.908;2023-05-12T00:01:38;98115.84;;;9.07;51.26
21401;BME280;18038;50.166;18.908;2023-05-12T00:04:45;98122.81;;;9.08;51.28
21401;BME280;18038;50.166;18.908;2023-05-12T00:07:55;98121.28;;;8.98;51.46
21401;BME280;18038;50.166;18.908;2023-05-12T00:11:01;98127.09;;;8.94;51.69
21401;BME280;18038;50.166;18.908;2023-05-12T00:14:16;98117.19;;;8.88;51.95
21401;BME280;18038;50.166;18.908;2023-05-12T00:17:24;98112.94;;;8.79;52.23
21401;BME280;18038;50.166;18.908;2023-05-12T00:20:32;98121.00;;;8.70;52.16
21401;BME280;18038;50.166;18.908;2023-05-12T00:23:38;98122.19;;;8.68;52.38
21401;BME280;18038;50.166;18.908;2023-05-12T00:26:45;98121.44;;;8.59;52.74
21401;BME280;18038;50.166;18.908;2023-05-12T00:29:51;98119.75;;;8.58;52.74
21401;BME280;18038;50.166;18.908;2023-05-12T00:33:10;98116.53;;;8.48;53.03
21401;BME280;18038;50.166;18.908;2023-05-12T00:36:18;98119.53;;;8.45;52.85
21401;BME280;18038;50.166;18.908;2023-05-12T00:39:25;98120.19;;;8.47;52.84
21401;BME280;18038;50.166;18.908;2023-05-12T00:42:33;98115.59;;;8.41;52.82
21401;BME280;18038;50.166;18.908;2023-05-12T00:45:40;98111.91;;;8.42;53.29
21401;BME280;18038;50.166;18.908;2023-05-12T00:48:50;98111.81;;;8.35;52.98
21401;BME280;18038;50.166;18.908;2023-05-12T00:51:58;98118.31;;;8.32;52.77
21401;BME280;18038;50.166;18.908;2023-05-12T00:55:14;98111.63;;;8.37;52.78
21401;BME280;18038;50.166;18.908;2023-05-12T00:58:21;98113.00;;;8.32;52.88
21401;BME280;18038;50.166;18.908;2023-05-12T01:01:34;98109.69;;;8.30;52.62
21401;BME280;18038;50.166;18.908;2023-05-12T01:04:50;98111.69;;;8.28;53.02
21401;BME280;18038;50.166;18.908;2023-05-12T01:07:59;98115.72;;;8.24;53.21
21401;BME280;18038;50.166;18.908;2023-05-12T01:11:11;98112.13;;;8.17;53.29
21401;BME280;18038;50.166;18.908;2023-05-12T01:14:17;98116.25;;;8.20;53.16
21401;BME280;18038;50.166;18.908;2023-05-12T01:17:31;98113.34;;;8.06;53.36
21401;BME280;18038;50.166;18.908;2023-05-12T01:20:43;98115.34;;;8.04;53.32
21401;BME280;18038;50.166;18.908;2023-05-12T01:23:59;98112.03;;;8.02;53.53
21401;BME280;18038;50.166;18.908;2023-05-12T01:27:14;98121.84;;;8.02;53.48
21401;BME280;18038;50.166;18.908;2023-05-12T01:30:35;98117.41;;;7.94;53.65
21401;BME280;18038;50.166;18.908;2023-05-12T01:33:47;98122.13;;;7.84;54.02
21401;BME280;18038;50.166;18.908;2023-05-12T01:36:54;98117.66;;;7.84;53.62
21401;BME280;18038;50.166;18.908;2023-05-12T01:40:00;98120.81;;;7.80;54.26
21401;BME280;18038;50.166;18.908;2023-05-12T01:43:10;98128.31;;;7.76;54.04
21401;BME280;18038;50.166;18.908;2023-05-12T01:46:16;98125.84;;;7.75;54.35
21401;BME280;18038;50.166;18.908;2023-05-12T01:49:24;98129.00;;;7.70;54.20
21401;BME280;18038;50.166;18.908;2023-05-12T01:52:30;98130.69;;;7.71;54.43
21401;BME280;18038;50.166;18.908;2023-05-12T01:55:38;98130.06;;;7.61;54.30
21401;BME280;18038;50.166;18.908;2023-05-12T01:58:47;98131.91;;;7.52;54.88
21401;BME280;18038;50.166;18.908;2023-05-12T02:01:54;98128.28;;;7.53;54.54
21401;BME280;18038;50.166;18.908;2023-05-12T02:05:05;98131.41;;;7.57;54.21
21401;BME280;18038;50.166;18.908;2023-05-12T02:08:13;98139.88;;;7.52;54.76
21401;BME280;18038;50.166;18.908;2023-05-12T02:11:19;98126.78;;;7.51;54.59
21401;BME280;18038;50.166;18.908;2023-05-12T02:14:28;98125.47;;;7.47;55.00
21401;BME280;18038;50.166;18.908;2023-05-12T02:17:35;98124.66;;;7.38;54.89
21401;BME280;18038;50.166;18.908;2023-05-12T02:20:46;98128.47;;;7.43;54.79
21401;BME280;18038;50.166;18.908;2023-05-12T02:23:52;98127.31;;;7.38;54.93
21401;BME280;18038;50.166;18.908;2023-05-12T02:26:59;98120.84;;;7.40;55.24
21401;BME280;18038;50.166;18.908;2023-05-12T02:30:09;98120.19;;;7.38;55.45
21401;BME280;18038;50.166;18.908;2023-05-12T02:33:19;98130.16;;;7.28;55.59
21401;BME280;18038;50.166;18.908;2023-05-12T02:36:28;98124.00;;;7.28;55.82
21401;BME280;18038;50.166;18.908;2023-05-12T02:39:35;98128.84;;;7.24;55.96
21401;BME280;18038;50.166;18.908;2023-05-12T02:42:41;98137.50;;;7.10;56.12
21401;BME280;18038;50.166;18.908;2023-05-12T02:45:50;98126.75;;;7.03;56.50
21401;BME280;18038;50.166;18.908;2023-05-12T02:48:57;98127.72;;;7.02;56.60
21401;BME280;18038;50.166;18.908;2023-05-12T02:52:07;98123.75;;;6.98;56.88
21401;BME280;18038;50.166;18.908;2023-05-12T02:55:20;98119.28;;;6.90;56.88
21401;BME280;18038;50.166;18.908;2023-05-12T02:58:26;98123.78;;;6.90;57.25
21401;BME280;18038;50.166;18.908;2023-05-12T03:01:42;98121.63;;;6.85;57.39
21401;BME280;18038;50.166;18.908;2023-05-12T03:04:49;98115.16;;;6.79;57.16
21401;BME280;18038;50.166;18.908;2023-05-12T03:07:55;98121.28;;;6.80;57.52
21401;BME280;18038;50.166;18.908;2023-05-12T03:11:02;98120.63;;;6.78;57.76
21401;BME280;18038;50.166;18.908;2023-05-12T03:14:09;98126.94;;;6.77;57.83
21401;BME280;18038;50.166;18.908;2023-05-12T03:17:18;98134.94;;;6.69;58.13
21401;BME280;18038;50.166;18.908;2023-05-12T03:20:25;98139.56;;;6.67;57.94
21401;BME280;18038;50.166;18.908;2023-05-12T03:23:34;98122.63;;;6.68;58.22
21401;BME280;18038;50.166;18.908;2023-05-12T03:26:44;98133.59;;;6.65;58.38
21401;BME280;18038;50.166;18.908;2023-05-12T03:29:51;98132.75;;;6.64;58.24
21401;BME280;18038;50.166;18.908;2023-05-12T03:33:00;98135.09;;;6.59;58.62
21401;BME280;18038;50.166;18.908;2023-05-12T03:36:17;98126.63;;;6.55;58.48
21401;BME280;18038;50.166;18.908;2023-05-12T03:39:23;98130.78;;;6.50;58.99
21401;BME280;18038;50.166;18.908;2023-05-12T03:42:44;98132.94;;;6.54;59.05
21401;BME280;18038;50.166;18.908;2023-05-12T03:45:52;98133.25;;;6.60;58.63
21401;BME280;18038;50.166;18.908;2023-05-12T03:49:02;98137.59;;;6.61;58.56
21401;BME280;18038;50.166;18.908;2023-05-12T03:52:08;98138.88;;;6.73;58.43
21401;BME280;18038;50.166;18.908;2023-05-12T03:55:15;98133.41;;;6.83;57.99
21401;BME280;18038;50.166;18.908;2023-05-12T03:58:21;98133.25;;;6.92;57.73
21401;BME280;18038;50.166;18.908;2023-05-12T04:01:28;98138.03;;;7.05;57.55
21401;BME280;18038;50.166;18.908;2023-05-12T04:04:38;98133.31;;;7.40;56.43
21401;BME280;18038;50.166;18.908;2023-05-12T04:07:45;98144.06;;;7.86;54.93
21401;BME280;18038;50.166;18.908;2023-05-12T04:10:54;98145.03;;;8.39;53.30
21401;BME280;18038;50.166;18.908;2023-05-12T04:14:01;98160.50;;;8.82;52.15
21401;BME280;18038;50.166;18.908;2023-05-12T04:17:07;98147.38;;;9.18;51.17
21401;BME280;18038;50.166;18.908;2023-05-12T04:20:16;98150.84;;;9.48;50.14
21401;BME280;18038;50.166;18.908;2023-05-12T04:23:23;98160.06;;;9.60;49.51
21401;BME280;18038;50.166;18.908;2023-05-12T04:26:30;98157.31;;;10.05;49.13
21401;BME280;18038;50.166;18.908;2023-05-12T04:29:36;98157.75;;;10.45;47.66
21401;BME280;18038;50.166;18.908;2023-05-12T04:32:46;98151.44;;;10.74;47.26
21401;BME280;18038;50.166;18.908;2023-05-12T04:35:57;98151.47;;;11.02;46.51
21401;BME280;18038;50.166;18.908;2023-05-12T04:39:04;98159.84;;;11.27;46.11
21401;BME280;18038;50.166;18.908;2023-05-12T04:42:11;98154.47;;;11.55;45.10
21401;BME280;18038;50.166;18.908;2023-05-12T04:45:18;98152.84;;;11.61;45.28
21401;BME280;18038;50.166;18.908;2023-05-12T04:48:26;98158.38;;;11.94;44.51
21401;BME280;18038;50.166;18.908;2023-05-12T04:51:36;98160.00;;;11.89;44.36
21401;BME280;18038;50.166;18.908;2023-05-12T04:54:44;98165.88;;;12.25;43.46
21401;BME280;18038;50.166;18.908;2023-05-12T04:57:51;98161.66;;;13.04;42.47
21401;BME280;18038;50.166;18.908;2023-05-12T05:00:58;98167.22;;;13.03;41.72
21401;BME280;18038;50.166;18.908;2023-05-12T05:04:06;98158.94;;;13.44;41.29
21401;BME280;18038;50.166;18.908;2023-05-12T05:07:14;98168.81;;;13.50;41.16
21401;BME280;18038;50.166;18.908;2023-05-12T05:10:21;98162.88;;;13.28;41.80
21401;BME280;18038;50.166;18.908;2023-05-12T05:13:27;98166.28;;;14.27;39.80
21401;BME280;18038;50.166;18.908;2023-05-12T05:16:34;98171.56;;;14.40;38.94
21401;BME280;18038;50.166;18.908;2023-05-12T05:19:41;98161.09;;;14.64;38.72
21401;BME280;18038;50.166;18.908;2023-05-12T05:23:05;98163.94;;;13.99;39.33
21401;BME280;18038;50.166;18.908;2023-05-12T05:26:11;98163.09;;;13.40;40.59
21401;BME280;18038;50.166;18.908;2023-05-12T05:29:18;98165.88;;;13.65;40.83
21401;BME280;18038;50.166;18.908;2023-05-12T05:32:25;98162.13;;;13.79;40.47
21401;BME280;18038;50.166;18.908;2023-05-12T05:35:32;98169.38;;;14.31;39.42
21401;BME280;18038;50.166;18.908;2023-05-12T05:38:41;98174.00;;;14.10;39.60
21401;BME280;18038;50.166;18.908;2023-05-12T05:41:49;98175.56;;;14.63;38.66
21401;BME280;18038;50.166;18.908;2023-05-12T05:44:55;98170.31;;;14.75;38.66
21401;BME280;18038;50.166;18.908;2023-05-12T05:48:03;98177.72;;;15.11;37.83
21401;BME280;18038;50.166;18.908;2023-05-12T05:51:10;98177.09;;;15.09;37.75
21401;BME280;18038;50.166;18.908;2023-05-12T05:54:22;98173.31;;;15.42;37.43
21401;BME280;18038;50.166;18.908;2023-05-12T05:57:28;98180.56;;;15.78;36.65
21401;BME280;18038;50.166;18.908;2023-05-12T06:00:35;98171.69;;;16.45;35.59
21401;BME280;18038;50.166;18.908;2023-05-12T06:03:42;98181.81;;;17.03;34.58
21401;BME280;18038;50.166;18.908;2023-05-12T06:06:53;98174.03;;;16.23;35.81
21401;BME280;18038;50.166;18.908;2023-05-12T06:10:02;98179.66;;;16.51;35.70
21401;BME280;18038;50.166;18.908;2023-05-12T06:13:09;98188.16;;;16.67;34.93
21401;BME280;18038;50.166;18.908;2023-05-12T06:16:15;98175.53;;;16.37;35.38
21401;BME280;18038;50.166;18.908;2023-05-12T06:19:23;98189.28;;;16.47;35.64
21401;BME280;18038;50.166;18.908;2023-05-12T06:22:29;98188.50;;;17.71;33.72
21401;BME280;18038;50.166;18.908;2023-05-12T06:25:39;98188.09;;;18.03;33.28
21401;BME280;18038;50.166;18.908;2023-05-12T06:28:52;98190.34;;;18.34;33.09
21401;BME280;18038;50.166;18.908;2023-05-12T06:32:03;98188.44;;;18.75;32.10
21401;BME280;18038;50.166;18.908;2023-05-12T06:35:10;98184.44;;;18.95;31.71
21401;BME280;18038;50.166;18.908;2023-05-12T06:38:17;98186.34;;;19.45;30.42
21401;BME280;18038;50.166;18.908;2023-05-12T06:41:34;98181.03;;;18.42;32.41
21401;BME280;18038;50.166;18.908;2023-05-12T06:44:41;98183.53;;;19.23;30.94
21401;BME280;18038;50.166;18.908;2023-05-12T06:47:48;98179.47;;;19.98;29.69
21401;BME280;18038;50.166;18.908;2023-05-12T06:51:15;98179.91;;;19.90;28.89
21401;BME280;18038;50.166;18.908;2023-05-12T06:54:22;98183.28;;;19.58;29.79
21401;BME280;18038;50.166;18.908;2023-05-12T06:57:31;98185.47;;;20.22;29.18
21401;BME280;18038;50.166;18.908;2023-05-12T07:00:39;98178.50;;;19.87;28.71
21401;BME280;18038;50.166;18.908;2023-05-12T07:03:46;98178.34;;;19.94;29.00
21401;BME280;18038;50.166;18.908;2023-05-12T07:06:52;98172.88;;;20.11;28.47
21401;BME280;18038;50.166;18.908;2023-05-12T07:09:59;98174.69;;;19.83;28.91
21401;BME280;18038;50.166;18.908;2023-05-12T07:13:08;98175.09;;;20.41;28.59
21401;BME280;18038;50.166;18.908;2023-05-12T07:16:16;98174.44;;;20.29;29.04
21401;BME280;18038;50.166;18.908;2023-05-12T07:19:26;98169.97;;;20.18;28.38
21401;BME280;18038;50.166;18.908;2023-05-12T07:22:33;98175.06;;;20.90;27.68
21401;BME280;18038;50.166;18.908;2023-05-12T07:25:40;98179.72;;;20.68;27.57
21401;BME280;18038;50.166;18.908;2023-05-12T07:28:50;98176.56;;;20.27;27.54
21401;BME280;18038;50.166;18.908;2023-05-12T07:31:56;98183.84;;;19.26;29.05
21401;BME280;18038;50.166;18.908;2023-05-12T07:35:03;98185.47;;;19.61;29.10
21401;BME280;18038;50.166;18.908;2023-05-12T07:38:11;98182.16;;;19.54;29.31
21401;BME280;18038;50.166;18.908;2023-05-12T07:41:18;98164.66;;;19.28;29.38
21401;BME280;18038;50.166;18.908;2023-05-12T07:44:32;98177.72;;;18.80;30.31
21401;BME280;18038;50.166;18.908;2023-05-12T07:47:39;98180.25;;;19.55;30.00
21401;BME280;18038;50.166;18.908;2023-05-12T07:50:50;98171.97;;;19.83;28.84
21401;BME280;18038;50.166;18.908;2023-05-12T07:53:57;98160.91;;;19.12;29.08
21401;BME280;18038;50.166;18.908;2023-05-12T07:57:03;98184.16;;;19.64;29.20
21401;BME280;18038;50.166;18.908;2023-05-12T08:00:13;98179.47;;;19.98;29.89
21401;BME280;18038;50.166;18.908;2023-05-12T08:03:20;98172.19;;;20.48;27.91
21401;BME280;18038;50.166;18.908;2023-05-12T08:06:27;98175.09;;;20.41;28.55
21401;BME280;18038;50.166;18.908;2023-05-12T08:09:33;98177.59;;;21.02;27.28
21401;BME280;18038;50.166;18.908;2023-05-12T08:12:41;98180.91;;;21.09;26.62
21401;BME280;18038;50.166;18.908;2023-05-12T08:15:50;98182.22;;;21.01;27.50
21401;BME280;18038;50.166;18.908;2023-05-12T08:18:58;98183.19;;;21.60;26.56
21401;BME280;18038;50.166;18.908;2023-05-12T08:22:03;98189.72;;;21.59;27.14
21401;BME280;18038;50.166;18.908;2023-05-12T08:25:10;98188.91;;;22.11;25.77
21401;BME280;18038;50.166;18.908;2023-05-12T08:28:17;98191.53;;;21.91;26.06
21401;BME280;18038;50.166;18.908;2023-05-12T08:31:27;98186.53;;;20.97;28.07
21401;BME280;18038;50.166;18.908;2023-05-12T08:34:33;98190.84;;;20.66;27.56
21401;BME280;18038;50.166;18.908;2023-05-12T08:37:40;98182.00;;;20.27;28.44
21401;BME280;18038;50.166;18.908;2023-05-12T08:40:56;98179.84;;;19.85;29.32
21401;BME280;18038;50.166;18.908;2023-05-12T08:44:14;98192.28;;;20.25;28.94
21401;BME280;18038;50.166;18.908;2023-05-12T08:47:27;98195.94;;;20.13;28.25
21401;BME280;18038;50.166;18.908;2023-05-12T08:50:37;98188.47;;;19.43;30.02
21401;BME280;18038;50.166;18.908;2023-05-12T08:53:52;98190.09;;;18.93;30.32
21401;BME280;18038;50.166;18.908;2023-05-12T08:57:03;98194.28;;;18.55;31.84
21401;BME280;18038;50.166;18.908;2023-05-12T09:00:18;98191.91;;;19.21;31.55
21401;BME280;18038;50.166;18.908;2023-05-12T09:03:30;98187.13;;;20.23;29.94
21401;BME280;18038;50.166;18.908;2023-05-12T09:06:38;98194.03;;;19.92;29.91
21401;BME280;18038;50.166;18.908;2023-05-12T09:09:53;98193.81;;;19.99;29.97
21401;BME280;18038;50.166;18.908;2023-05-12T09:13:11;98192.94;;;20.10;29.26
21401;BME280;18038;50.166;18.908;2023-05-12T09:16:24;98195.16;;;21.21;28.77
21401;BME280;18038;50.166;18.908;2023-05-12T09:19:39;98198.72;;;20.19;27.79
21401;BME280;18038;50.166;18.908;2023-05-12T09:22:46;98191.59;;;21.16;27.16
21401;BME280;18038;50.166;18.908;2023-05-12T09:25:58;98194.88;;;21.23;27.99
21401;BME280;18038;50.166;18.908;2023-05-12T09:29:06;98182.59;;;20.83;26.39
21401;BME280;18038;50.166;18.908;2023-05-12T09:32:32;98181.97;;;21.40;25.24
21401;BME280;18038;50.166;18.908;2023-05-12T09:35:44;98184.88;;;21.29;25.19
21401;BME280;18038;50.166;18.908;2023-05-12T09:39:01;98198.38;;;20.86;26.30
21401;BME280;18038;50.166;18.908;2023-05-12T09:42:10;98178.81;;;19.69;26.55
21401;BME280;18038;50.166;18.908;2023-05-12T09:45:18;98191.53;;;20.07;26.23
21401;BME280;18038;50.166;18.908;2023-05-12T09:48:25;98179.47;;;20.42;25.67
21401;BME280;18038;50.166;18.908;2023-05-12T09:51:34;98187.72;;;20.30;24.60
21401;BME280;18038;50.166;18.908;2023-05-12T09:54:41;98183.22;;;20.41;26.55
21401;BME280;18038;50.166;18.908;2023-05-12T09:57:48;98182.16;;;20.69;26.31
21401;BME280;18038;50.166;18.908;2023-05-12T10:00:55;98192.22;;;20.96;25.23
21401;BME280;18038;50.166;18.908;2023-05-12T10:04:09;98187.31;;;21.30;25.17
21401;BME280;18038;50.166;18.908;2023-05-12T10:07:21;98175.78;;;21.50;24.89
21401;BME280;18038;50.166;18.908;2023-05-12T10:10:34;98191.59;;;20.34;25.56
21401;BME280;18038;50.166;18.908;2023-05-12T10:13:42;98198.22;;;20.22;26.24
21401;BME280;18038;50.166;18.908;2023-05-12T10:16:49;98186.69;;;20.31;26.70
21401;BME280;18038;50.166;18.908;2023-05-12T10:19:58;98186.84;;;20.47;26.54
21401;BME280;18038;50.166;18.908;2023-05-12T10:23:11;98185.88;;;20.58;24.04
21401;BME280;18038;50.166;18.908;2023-05-12T10:26:19;98186.84;;;20.47;25.30
21401;BME280;18038;50.166;18.908;2023-05-12T10:29:38;98179.34;;;20.86;25.66
21401;BME280;18038;50.166;18.908;2023-05-12T10:32:46;98176.25;;;21.05;25.71
21401;BME280;18038;50.166;18.908;2023-05-12T10:35:55;98175.16;;;21.00;25.60
21401;BME280;18038;50.166;18.908;2023-05-12T10:39:29;98177.69;;;21.12;25.50
21401;BME280;18038;50.166;18.908;2023-05-12T10:42:38;98168.56;;;21.61;23.60
21401;BME280;18038;50.166;18.908;2023-05-12T10:45:46;98179.56;;;20.52;24.45
21401;BME280;18038;50.166;18.908;2023-05-12T10:49:10;98169.53;;;20.26;25.11
21401;BME280;18038;50.166;18.908;2023-05-12T10:52:19;98166.47;;;20.44;25.28
21401;BME280;18038;50.166;18.908;2023-05-12T10:55:42;98170.47;;;20.14;25.61
21401;BME280;18038;50.166;18.908;2023-05-12T10:59:08;98182.53;;;19.63;25.75
21401;BME280;18038;50.166;18.908;2023-05-12T11:02:23;98174.03;;;19.37;26.27
21401;BME280;18038;50.166;18.908;2023-05-12T11:05:34;98182.97;;;19.38;27.44
21401;BME280;18038;50.166;18.908;2023-05-12T11:08:42;98184.19;;;19.47;26.65
21401;BME280;18038;50.166;18.908;2023-05-12T11:11:55;98190.00;;;19.05;26.77
21401;BME280;18038;50.166;18.908;2023-05-12T11:15:04;98180.91;;;19.11;27.44
21401;BME280;18038;50.166;18.908;2023-05-12T11:18:11;98176.56;;;19.83;27.10
21401;BME280;18038;50.166;18.908;2023-05-12T11:21:19;98172.81;;;19.67;26.58
21401;BME280;18038;50.166;18.908;2023-05-12T11:24:25;98174.41;;;19.85;26.50
21401;BME280;18038;50.166;18.908;2023-05-12T11:27:34;98191.50;;;19.46;26.60
21401;BME280;18038;50.166;18.908;2023-05-12T11:30:49;98189.84;;;18.78;26.82
21401;BME280;18038;50.166;18.908;2023-05-12T11:34:03;98179.91;;;18.38;27.71
21401;BME280;18038;50.166;18.908;2023-05-12T11:37:15;98193.81;;;18.58;27.99
21401;BME280;18038;50.166;18.908;2023-05-12T11:40:23;98197.13;;;18.77;26.67
21401;BME280;18038;50.166;18.908;2023-05-12T11:43:38;98193.91;;;18.64;26.98
21401;BME280;18038;50.166;18.908;2023-05-12T11:46:55;98192.34;;;18.51;27.95
21401;BME280;18038;50.166;18.908;2023-05-12T11:50:04;98203.88;;;17.94;28.06
21401;BME280;18038;50.166;18.908;2023-05-12T11:53:12;98189.09;;;17.61;28.00
21401;BME280;18038;50.166;18.908;2023-05-12T11:56:22;98196.03;;;17.57;28.04
21401;BME280;18038;50.166;18.908;2023-05-12T11:59:32;98200.47;;;17.99;28.54
21401;BME280;18038;50.166;18.908;2023-05-12T12:02:40;98207.41;;;17.47;29.00
21401;BME280;18038;50.166;18.908;2023-05-12T12:05:57;98206.38;;;17.72;29.42
21401;BME280;18038;50.166;18.908;2023-05-12T12:09:04;98199.44;;;17.76;29.86
21401;BME280;18038;50.166;18.908;2023-05-12T12:12:21;98205.56;;;17.71;29.04
21401;BME280;18038;50.166;18.908;2023-05-12T12:15:31;98193.31;;;17.81;28.66
21401;BME280;18038;50.166;18.908;2023-05-12T12:18:38;98196.75;;;17.64;29.17
21401;BME280;18038;50.166;18.908;2023-05-12T12:21:45;98198.91;;;18.03;29.45
21401;BME280;18038;50.166;18.908;2023-05-12T12:24:51;98197.44;;;17.83;29.01
21401;BME280;18038;50.166;18.908;2023-05-12T12:27:58;98196.97;;;17.39;29.90
21401;BME280;18038;50.166;18.908;2023-05-12T12:31:07;98200.38;;;17.46;29.64
21401;BME280;18038;50.166;18.908;2023-05-12T12:34:14;98195.88;;;16.93;29.71
21401;BME280;18038;50.166;18.908;2023-05-12T12:37:20;98202.94;;;17.06;29.54
21401;BME280;18038;50.166;18.908;2023-05-12T12:40:27;98202.47;;;17.21;29.61
21401;BME280;18038;50.166;18.908;2023-05-12T12:43:33;98202.34;;;17.16;30.32
21401;BME280;18038;50.166;18.908;2023-05-12T12:46:42;98202.13;;;17.29;30.10
21401;BME280;18038;50.166;18.908;2023-05-12T12:49:55;98197.66;;;17.23;30.61
21401;BME280;18038;50.166;18.908;2023-05-12T12:53:02;98207.63;;;17.11;30.44
21401;BME280;18038;50.166;18.908;2023-05-12T12:56:08;98214.03;;;16.86;30.91
21401;BME280;18038;50.166;18.908;2023-05-12T12:59:15;98205.25;;;16.60;31.27
21401;BME280;18038;50.166;18.908;2023-05-12T13:02:25;98213.91;;;16.62;31.12
21401;BME280;18038;50.166;18.908;2023-05-12T13:05:32;98214.06;;;16.68;31.13
21401;BME280;18038;50.166;18.908;2023-05-12T13:08:38;98211.25;;;16.93;31.27
21401;BME280;18038;50.166;18.908;2023-05-12T13:11:45;98199.31;;;17.24;31.12
21401;BME280;18038;50.166;18.908;2023-05-12T13:14:52;98208.94;;;17.08;30.76
21401;BME280;18038;50.166;18.908;2023-05-12T13:18:02;98209.13;;;16.95;30.40
21401;BME280;18038;50.166;18.908;2023-05-12T13:21:08;98214.75;;;16.93;31.36
21401;BME280;18038;50.166;18.908;2023-05-12T13:24:15;98203.19;;;16.74;31.32
21401;BME280;18038;50.166;18.908;2023-05-12T13:27:21;98203.03;;;16.99;31.88
21401;BME280;18038;50.166;18.908;2023-05-12T13:30:32;98202.91;;;16.94;31.62
21401;BME280;18038;50.166;18.908;2023-05-12T13:33:41;98199.41;;;17.17;31.20
21401;BME280;18038;50.166;18.908;2023-05-12T13:36:48;98198.94;;;17.08;31.27
21401;BME280;18038;50.166;18.908;2023-05-12T13:39:55;98190.28;;;17.42;31.27
21401;BME280;18038;50.166;18.908;2023-05-12T13:43:16;98180.66;;;17.22;31.27
21401;BME280;18038;50.166;18.908;2023-05-12T13:46:26;98182.19;;;17.30;31.52
21401;BME280;18038;50.166;18.908;2023-05-12T13:49:36;98197.75;;;17.63;30.89
21401;BME280;18038;50.166;18.908;2023-05-12T13:52:42;98189.78;;;17.45;29.70
21401;BME280;18038;50.166;18.908;2023-05-12T13:55:50;98185.72;;;17.19;30.04
21401;BME280;18038;50.166;18.908;2023-05-12T13:58:59;98179.84;;;17.45;29.26
21401;BME280;18038;50.166;18.908;2023-05-12T14:02:07;98187.94;;;17.34;29.44
21401;BME280;18038;50.166;18.908;2023-05-12T14:05:18;98169.25;;;17.44;30.02
21401;BME280;18038;50.166;18.908;2023-05-12T14:08:25;98173.38;;;17.35;30.48
21401;BME280;18038;50.166;18.908;2023-05-12T14:11:32;98180.19;;;17.37;30.74
21401;BME280;18038;50.166;18.908;2023-05-12T14:14:39;98180.66;;;17.46;29.25
21401;BME280;18038;50.166;18.908;2023-05-12T14:17:51;98177.44;;;17.84;29.23
21401;BME280;18038;50.166;18.908;2023-05-12T14:21:00;98183.59;;;17.80;29.43
21401;BME280;18038;50.166;18.908;2023-05-12T14:24:09;98176.78;;;17.77;29.02
21401;BME280;18038;50.166;18.908;2023-05-12T14:27:26;98182.03;;;17.60;29.25
21401;BME280;18038;50.166;18.908;2023-05-12T14:30:32;98185.94;;;17.88;30.29
21401;BME280;18038;50.166;18.908;2023-05-12T14:33:39;98168.31;;;17.85;29.67
21401;BME280;18038;50.166;18.908;2023-05-12T14:36:48;98176.78;;;17.65;30.07
21401;BME280;18038;50.166;18.908;2023-05-12T14:39:57;98187.44;;;17.60;29.97
21401;BME280;18038;50.166;18.908;2023-05-12T14:43:03;98191.94;;;17.43;30.28
21401;BME280;18038;50.166;18.908;2023-05-12T14:46:27;98175.13;;;17.52;30.85
21401;BME280;18038;50.166;18.908;2023-05-12T14:49:33;98178.56;;;17.48;31.44
21401;BME280;18038;50.166;18.908;2023-05-12T14:52:42;98185.72;;;17.19;31.32
21401;BME280;18038;50.166;18.908;2023-05-12T14:55:49;98188.25;;;16.90;30.91
21401;BME280;18038;50.166;18.908;2023-05-12T14:58:56;98185.53;;;16.90;31.48
21401;BME280;18038;50.166;18.908;2023-05-12T15:02:08;98178.13;;;16.85;31.01
21401;BME280;18038;50.166;18.908;2023-05-12T15:05:19;98185.28;;;16.92;30.63
21401;BME280;18038;50.166;18.908;2023-05-12T15:08:42;98183.56;;;16.97;30.95
21401;BME280;18038;50.166;18.908;2023-05-12T15:11:49;98184.28;;;17.04;31.97
21401;BME280;18038;50.166;18.908;2023-05-12T15:14:56;98190.59;;;17.10;31.55
21401;BME280;18038;50.166;18.908;2023-05-12T15:18:07;98195.06;;;17.04;31.46
21401;BME280;18038;50.166;18.908;2023-05-12T15:21:21;98180.84;;;16.85;31.38
21401;BME280;18038;50.166;18.908;2023-05-12T15:24:31;98195.88;;;16.63;32.84
21401;BME280;18038;50.166;18.908;2023-05-12T15:27:37;98196.66;;;16.52;32.88
21401;BME280;18038;50.166;18.908;2023-05-12T15:30:44;98186.38;;;16.60;32.78
21401;BME280;18038;50.166;18.908;2023-05-12T15:33:59;98191.41;;;16.27;32.37
21401;BME280;18038;50.166;18.908;2023-05-12T15:37:06;98192.75;;;16.17;32.72
21401;BME280;18038;50.166;18.908;2023-05-12T15:40:15;98196.88;;;16.20;32.71
21401;BME280;18038;50.166;18.908;2023-05-12T15:43:22;98200.69;;;16.12;32.49
21401;BME280;18038;50.166;18.908;2023-05-12T15:46:32;98194.41;;;16.18;32.08
21401;BME280;18038;50.166;18.908;2023-05-12T15:49:40;98190.31;;;16.16;31.56
21401;BME280;18038;50.166;18.908;2023-05-12T15:52:46;98199.72;;;16.07;31.84
21401;BME280;18038;50.166;18.908;2023-05-12T15:56:04;98196.38;;;16.11;31.83
21401;BME280;18038;50.166;18.908;2023-05-12T15:59:10;98191.06;;;16.05;31.93
21401;BME280;18038;50.166;18.908;2023-05-12T16:02:21;98203.03;;;16.09;31.39
21401;BME280;18038;50.166;18.908;2023-05-12T16:05:27;98192.09;;;16.04;31.28
21401;BME280;18038;50.166;18.908;2023-05-12T16:08:36;98198.00;;;15.94;30.88
21401;BME280;18038;50.166;18.908;2023-05-12T16:11:44;98193.97;;;16.03;30.96
21401;BME280;18038;50.166;18.908;2023-05-12T16:14:52;98199.50;;;16.08;30.09
21401;BME280;18038;50.166;18.908;2023-05-12T16:17:58;98191.97;;;15.98;30.50
21401;BME280;18038;50.166;18.908;2023-05-12T16:21:05;98194.88;;;15.97;30.19
21401;BME280;18038;50.166;18.908;2023-05-12T16:24:11;98213.44;;;16.05;30.66
21401;BME280;18038;50.166;18.908;2023-05-12T16:27:20;98193.69;;;15.93;30.79
21401;BME280;18038;50.166;18.908;2023-05-12T16:30:33;98212.38;;;15.88;30.98
21401;BME280;18038;50.166;18.908;2023-05-12T16:33:42;98210.22;;;15.96;31.26